createdAt,value
2023-04-11T00:02:26.442Z,17.02
2023-04-11T00:04:55.411Z,17.83
2023-04-11T00:07:24.000Z,14.07
2023-04-11T00:09:52.573Z,15.13
2023-04-11T00:12:21.195Z,15.77
2023-04-11T00:14:49.873Z,16.08
2023-04-11T00:17:18.772Z,13.18
2023-04-11T00:19:50.546Z,18.73
2023-04-11T00:22:22.674Z,20.10
2023-04-11T00:24:54.232Z,16.65
2023-04-11T00:27:24.019Z,19.33
2023-04-11T00:29:58.855Z,16.17
2023-04-11T00:32:35.295Z,15.57
2023-04-11T00:35:14.566Z,20.60
2023-04-11T00:37:59.386Z,20.73
2023-04-11T00:40:32.009Z,17.25
2023-04-11T00:43:00.674Z,22.33
2023-04-11T00:45:34.274Z,22.55
2023-04-11T00:48:03.695Z,19.70
2023-04-11T00:50:39.646Z,15.75
2023-04-11T00:53:09.598Z,24.35
2023-04-11T00:55:38.451Z,23.48
2023-04-11T00:58:09.418Z,19.80
2023-04-11T01:00:38.835Z,17.63
2023-04-11T01:03:08.514Z,18.50
2023-04-11T01:05:39.314Z,22.52
2023-04-11T01:08:09.181Z,22.90
2023-04-11T01:10:39.401Z,20.30
2023-04-11T01:13:09.310Z,21.73
2023-04-11T01:15:38.049Z,15.50
2023-04-11T01:18:09.055Z,17.50
2023-04-11T01:20:39.698Z,19.55
2023-04-11T01:23:10.494Z,29.95
2023-04-11T01:25:40.722Z,17.33
2023-04-11T01:28:10.062Z,17.33
2023-04-11T01:30:38.761Z,22.00
2023-04-11T01:33:07.956Z,22.40
2023-04-11T01:35:36.738Z,23.13
2023-04-11T01:38:06.082Z,21.47
2023-04-11T01:40:36.025Z,19.17
2023-04-11T01:43:08.290Z,17.20
2023-04-11T01:45:38.231Z,21.88
2023-04-11T01:48:08.760Z,19.25
2023-04-11T01:50:37.599Z,26.33
2023-04-11T01:53:06.335Z,16.45
2023-04-11T01:55:35.001Z,16.13
2023-04-11T01:58:05.010Z,19.17
2023-04-11T02:00:33.756Z,19.58
2023-04-11T02:03:02.608Z,20.37
2023-04-11T02:05:31.369Z,22.38
2023-04-11T02:08:00.021Z,16.80
2023-04-11T02:10:28.820Z,21.65
2023-04-11T02:12:57.497Z,18.42
2023-04-11T02:15:27.585Z,23.33
2023-04-11T02:17:56.303Z,23.70
2023-04-11T02:20:25.060Z,22.10
2023-04-11T02:22:53.656Z,21.48
2023-04-11T02:25:22.247Z,35.53
2023-04-11T02:27:50.827Z,19.30
2023-04-11T02:30:19.406Z,23.55
2023-04-11T02:32:50.491Z,25.02
2023-04-11T02:35:20.806Z,21.92
2023-04-11T02:37:49.473Z,23.17
2023-04-11T02:40:18.278Z,22.80
2023-04-11T02:42:46.995Z,23.90
2023-04-11T02:45:16.221Z,211.98
2023-04-11T02:47:44.925Z,143.07
2023-04-11T02:50:15.201Z,82.55
2023-04-11T02:52:49.718Z,62.17
2023-04-11T02:55:23.247Z,49.28
2023-04-11T02:57:52.972Z,29.73
2023-04-11T03:00:23.212Z,28.25
2023-04-11T03:03:00.900Z,25.77
2023-04-11T03:05:32.451Z,24.93
2023-04-11T03:08:01.045Z,23.27
2023-04-11T03:10:32.464Z,30.20
2023-04-11T03:13:02.748Z,26.30
2023-04-11T03:15:32.655Z,24.55
2023-04-11T03:18:06.228Z,43.83
2023-04-11T03:20:38.083Z,129.82
2023-04-11T03:23:07.749Z,85.55
2023-04-11T03:25:37.781Z,49.60
2023-04-11T03:28:07.330Z,49.10
2023-04-11T03:30:36.084Z,25.03
2023-04-11T03:33:04.893Z,24.50
2023-04-11T03:35:33.792Z,23.45
2023-04-11T03:38:03.925Z,27.02
2023-04-11T03:40:32.633Z,31.92
2023-04-11T03:43:22.361Z,19.87
2023-04-11T03:45:53.517Z,62.17
2023-04-11T03:48:47.146Z,93.70
2023-04-11T03:51:16.894Z,38.90
2023-04-11T03:54:04.611Z,27.40
2023-04-11T03:56:40.817Z,26.67
2023-04-11T03:59:15.717Z,34.88
2023-04-11T04:02:10.597Z,27.02
2023-04-11T04:04:48.763Z,21.88
2023-04-11T04:07:24.727Z,26.10
2023-04-11T04:09:59.418Z,28.60
2023-04-11T04:12:29.172Z,27.13
2023-04-11T04:15:14.962Z,26.40
2023-04-11T04:17:46.990Z,28.58
2023-04-11T04:20:22.245Z,30.48
2023-04-11T04:22:55.868Z,25.20
2023-04-11T04:25:36.365Z,25.98
2023-04-11T04:28:07.019Z,21.75
2023-04-11T04:30:40.102Z,22.80
2023-04-11T04:33:12.528Z,24.83
2023-04-11T04:35:46.527Z,24.50
2023-04-11T04:38:17.676Z,31.17
2023-04-11T04:40:58.962Z,27.60
2023-04-11T04:43:32.483Z,29.65
2023-04-11T04:46:20.975Z,25.92
2023-04-11T04:48:55.434Z,26.43
2023-04-11T04:51:25.086Z,25.52
2023-04-11T04:53:54.099Z,28.80
2023-04-11T04:56:24.741Z,24.48
2023-04-11T04:58:55.185Z,27.65
2023-04-11T05:01:26.977Z,28.57
2023-04-11T05:04:00.477Z,27.30
2023-04-11T05:06:50.150Z,26.98
2023-04-11T05:09:19.665Z,27.55
2023-04-11T05:11:51.613Z,32.58
2023-04-11T05:14:22.484Z,30.03
2023-04-11T05:16:52.152Z,32.03
2023-04-11T05:19:21.312Z,25.92
2023-04-11T05:21:52.497Z,38.53
2023-04-11T05:24:21.366Z,36.85
2023-04-11T05:26:51.778Z,35.17
2023-04-11T05:29:22.557Z,33.03
2023-04-11T05:31:51.469Z,41.35
2023-04-11T05:34:20.213Z,40.28
2023-04-11T05:36:51.100Z,47.58
2023-04-11T05:39:19.932Z,32.30
2023-04-11T05:41:48.638Z,44.08
2023-04-11T05:44:18.766Z,29.40
2023-04-11T05:46:47.445Z,33.63
2023-04-11T05:49:16.177Z,37.13
2023-04-11T05:51:45.052Z,34.97
2023-04-11T05:54:33.700Z,29.88
2023-04-11T05:57:03.374Z,33.50
2023-04-11T05:59:34.763Z,36.75
2023-04-11T06:02:04.251Z,34.90
2023-04-11T06:04:33.261Z,34.23
2023-04-11T06:07:04.498Z,27.40
2023-04-11T06:09:34.164Z,36.90
2023-04-11T06:12:03.483Z,39.47
2023-04-11T06:14:33.745Z,39.90
2023-04-11T06:17:02.452Z,31.70
2023-04-11T06:19:30.987Z,25.58
2023-04-11T06:21:59.834Z,25.63
2023-04-11T06:24:38.649Z,22.92
2023-04-11T06:27:10.141Z,29.50
2023-04-11T06:29:43.620Z,27.07
2023-04-11T06:32:13.703Z,25.55
2023-04-11T06:34:42.807Z,23.80
2023-04-11T06:37:11.886Z,31.48
2023-04-11T06:39:45.515Z,32.60
2023-04-11T06:42:17.936Z,38.57
2023-04-11T06:45:07.704Z,34.50
2023-04-11T06:47:49.515Z,42.53
2023-04-11T06:50:50.880Z,33.92
2023-04-11T06:53:40.619Z,28.42
2023-04-11T06:56:11.600Z,27.73
2023-04-11T06:58:40.260Z,28.13
2023-04-11T07:01:10.441Z,31.35
2023-04-11T07:03:39.333Z,32.05
2023-04-11T07:06:08.776Z,29.35
2023-04-11T07:08:38.232Z,27.53
2023-04-11T07:11:07.715Z,24.58
2023-04-11T07:13:36.514Z,24.92
2023-04-11T07:16:06.573Z,25.83
2023-04-11T07:18:36.666Z,22.80
2023-04-11T07:21:05.795Z,23.60
2023-04-11T07:23:35.289Z,28.27
2023-04-11T07:26:04.384Z,21.95
2023-04-11T07:28:32.972Z,20.25
2023-04-11T07:31:01.650Z,26.40
2023-04-11T07:33:30.438Z,20.37
2023-04-11T07:36:00.765Z,26.27
2023-04-11T07:38:29.980Z,18.27
2023-04-11T07:41:00.806Z,15.18
2023-04-11T07:43:30.571Z,12.10
2023-04-11T07:46:03.628Z,16.90
2023-04-11T07:48:33.122Z,19.48
2023-04-11T07:51:03.242Z,13.80
2023-04-11T07:53:34.368Z,18.38
2023-04-11T07:56:03.045Z,19.90
2023-04-11T07:58:32.141Z,23.07
2023-04-11T08:01:02.712Z,19.55
2023-04-11T08:03:32.182Z,19.80
2023-04-11T08:06:02.353Z,15.25
2023-04-11T08:08:31.127Z,14.80
2023-04-11T08:10:59.755Z,17.93
2023-04-11T08:13:28.328Z,18.23
2023-04-11T08:15:57.069Z,29.08
2023-04-11T08:18:25.952Z,22.92
2023-04-11T08:20:54.651Z,24.52
2023-04-11T08:23:24.645Z,26.17
2023-04-11T08:25:53.343Z,25.63
2023-04-11T08:28:22.130Z,19.27
2023-04-11T08:30:53.271Z,19.02
2023-04-11T08:33:24.752Z,12.63
2023-04-11T08:35:53.570Z,18.00
2023-04-11T08:38:22.444Z,15.25
2023-04-11T08:40:53.098Z,16.33
2023-04-11T08:43:21.921Z,10.75
2023-04-11T08:45:55.506Z,11.70
2023-04-11T08:48:27.470Z,10.17
2023-04-11T08:50:56.215Z,8.45
2023-04-11T08:53:28.037Z,13.20
2023-04-11T08:55:59.850Z,8.27
2023-04-11T08:58:28.943Z,15.27
2023-04-11T09:00:57.564Z,16.77
2023-04-11T09:03:26.313Z,8.93
2023-04-11T09:05:57.334Z,8.82
2023-04-11T09:08:40.498Z,9.00
2023-04-11T09:11:10.589Z,8.15
2023-04-11T09:13:39.188Z,9.43
2023-04-11T09:16:10.550Z,11.90
2023-04-11T09:18:41.690Z,27.13
2023-04-11T09:21:12.332Z,8.02
2023-04-11T09:23:41.457Z,7.78
2023-04-11T09:26:13.616Z,6.73
2023-04-11T09:28:44.908Z,7.45
2023-04-11T09:31:14.117Z,9.65
2023-04-11T09:33:55.357Z,8.45
2023-04-11T09:36:27.277Z,9.55
2023-04-11T09:38:56.809Z,8.47
2023-04-11T09:41:37.049Z,10.68
2023-04-11T09:44:05.904Z,8.25
2023-04-11T09:46:34.689Z,7.40
2023-04-11T09:49:04.514Z,7.97
2023-04-11T09:51:36.866Z,11.53
2023-04-11T09:54:07.082Z,8.50
2023-04-11T09:56:38.367Z,51.22
2023-04-11T09:59:07.443Z,8.80
2023-04-11T10:01:38.430Z,9.20
2023-04-11T10:04:07.077Z,10.63
2023-04-11T10:06:46.858Z,10.63
2023-04-11T10:09:16.798Z,6.68
2023-04-11T10:11:47.289Z,17.40
2023-04-11T10:14:46.594Z,7.90
2023-04-11T10:17:21.297Z,7.80
2023-04-11T10:19:57.483Z,9.00
2023-04-11T10:23:01.327Z,9.85
2023-04-11T10:25:30.208Z,9.23
2023-04-11T10:28:02.145Z,10.30
2023-04-11T10:31:04.669Z,11.17
2023-04-11T10:33:35.262Z,13.68
2023-04-11T10:36:06.650Z,8.55
2023-04-11T10:38:51.666Z,6.97
2023-04-11T10:41:31.962Z,9.52
2023-04-11T10:44:21.069Z,10.20
2023-04-11T10:46:54.000Z,8.95
2023-04-11T10:49:40.666Z,13.10
2023-04-11T10:52:23.037Z,5.70
2023-04-11T10:54:53.961Z,9.82
2023-04-11T10:57:23.344Z,5.47
2023-04-11T11:00:14.002Z,7.38
2023-04-11T11:02:43.255Z,5.60
2023-04-11T11:05:24.824Z,5.55
2023-04-11T11:07:55.527Z,7.00
2023-04-11T11:10:46.374Z,5.93
2023-04-11T11:13:17.679Z,6.90
2023-04-11T11:15:52.081Z,5.22
2023-04-11T11:18:20.821Z,6.82
2023-04-11T11:20:55.732Z,9.80
2023-04-11T11:23:24.385Z,5.50
2023-04-11T11:25:57.255Z,8.85
2023-04-11T11:31:04.081Z,4.78
2023-04-11T11:33:32.700Z,7.38
2023-04-11T11:36:04.617Z,10.73
2023-04-11T11:38:33.372Z,10.73
2023-04-11T11:41:02.735Z,6.18
2023-04-11T11:43:31.458Z,7.43
2023-04-11T11:46:16.109Z,5.72
2023-04-11T11:48:59.758Z,7.17
2023-04-11T11:51:28.982Z,6.47
2023-04-11T11:54:08.700Z,4.88
2023-04-11T11:56:37.971Z,8.35
2023-04-11T11:59:07.195Z,7.05
2023-04-11T12:01:38.121Z,6.37
2023-04-11T12:04:11.861Z,8.10
2023-04-11T12:06:50.028Z,9.48
2023-04-11T12:09:21.703Z,9.02
2023-04-11T12:11:57.359Z,6.70
2023-04-11T12:14:26.366Z,5.50
2023-04-11T12:16:56.709Z,6.57
2023-04-11T12:19:25.452Z,6.50
2023-04-11T12:21:54.031Z,8.55
2023-04-11T12:24:22.690Z,7.13
2023-04-11T12:27:05.794Z,6.10
2023-04-11T12:29:35.816Z,8.88
2023-04-11T12:32:07.093Z,8.70
2023-04-11T12:37:43.109Z,5.97
2023-04-11T12:40:17.336Z,9.00
2023-04-11T12:42:56.838Z,8.85
2023-04-11T12:45:28.207Z,6.97
2023-04-11T12:47:58.272Z,7.65
2023-04-11T12:50:29.918Z,6.70
2023-04-11T12:52:58.511Z,8.50
2023-04-11T12:55:28.803Z,8.13
2023-04-11T12:57:57.715Z,6.78
2023-04-11T13:00:26.539Z,9.63
2023-04-11T13:02:56.503Z,8.13
2023-04-11T13:05:27.228Z,9.10
2023-04-11T13:07:55.876Z,8.60
2023-04-11T13:10:24.638Z,5.72
2023-04-11T13:12:57.202Z,8.65
2023-04-11T13:15:27.385Z,7.18
2023-04-11T13:17:55.999Z,8.77
2023-04-11T13:20:25.991Z,17.75
2023-04-11T13:22:54.670Z,6.65
2023-04-11T13:25:23.205Z,6.80
2023-04-11T13:27:51.798Z,6.57
2023-04-11T13:30:20.421Z,9.53
2023-04-11T13:32:49.082Z,7.55
2023-04-11T13:35:17.760Z,8.68
2023-04-11T13:37:49.812Z,7.50
2023-04-11T13:40:18.767Z,14.25
2023-04-11T13:42:48.465Z,13.30
2023-04-11T13:45:17.125Z,8.57
2023-04-11T13:47:46.154Z,12.13
2023-04-11T13:50:14.839Z,8.48
2023-04-11T13:52:43.379Z,8.05
2023-04-11T13:55:13.407Z,12.83
2023-04-11T13:57:42.001Z,14.48
2023-04-11T14:00:12.517Z,10.13
2023-04-11T14:02:42.406Z,6.63
2023-04-11T14:05:11.914Z,8.27
2023-04-11T14:07:40.621Z,10.87
2023-04-11T14:10:10.522Z,14.77
2023-04-11T14:12:40.851Z,9.55
2023-04-11T14:15:11.488Z,9.65
2023-04-11T14:17:40.205Z,12.30
2023-04-11T14:20:11.449Z,6.63
2023-04-11T14:22:40.172Z,7.18
2023-04-11T14:25:11.171Z,8.43
2023-04-11T14:27:42.361Z,8.02
2023-04-11T14:30:13.842Z,10.27
2023-04-11T14:32:43.066Z,8.33
2023-04-11T14:35:11.825Z,7.35
2023-04-11T14:37:40.555Z,6.68
2023-04-11T14:40:13.802Z,8.60
2023-04-11T14:42:43.839Z,7.75
2023-04-11T14:45:12.529Z,5.93
2023-04-11T14:47:41.230Z,11.43
2023-04-11T14:50:11.836Z,10.50
2023-04-11T14:52:40.398Z,9.15
2023-04-11T14:55:10.571Z,10.05
2023-04-11T14:57:48.561Z,6.37
2023-04-11T15:00:22.494Z,6.60
2023-04-11T15:02:54.090Z,10.27
2023-04-11T15:05:24.705Z,13.18
2023-04-11T15:07:54.482Z,14.60
2023-04-11T15:10:25.898Z,6.40
2023-04-11T15:12:56.069Z,13.25
2023-04-11T15:15:24.944Z,6.03
2023-04-11T15:18:21.563Z,7.60
2023-04-11T15:20:50.520Z,5.03
2023-04-11T15:23:20.172Z,4.50
2023-04-11T15:25:53.156Z,8.63
2023-04-11T15:28:23.677Z,9.90
2023-04-11T15:30:54.592Z,11.95
2023-04-11T15:33:24.450Z,11.00
2023-04-11T15:35:54.845Z,8.23
2023-04-11T15:38:23.947Z,12.80
2023-04-11T15:40:54.224Z,5.07
2023-04-11T15:43:24.743Z,7.47
2023-04-11T15:45:54.867Z,6.40
2023-04-11T15:48:23.582Z,10.03
2023-04-11T15:50:52.290Z,8.05
2023-04-11T15:53:23.200Z,9.50
2023-04-11T15:55:52.831Z,6.43
2023-04-11T15:58:21.485Z,7.55
2023-04-11T16:00:54.904Z,7.17
2023-04-11T16:03:24.393Z,5.47
2023-04-11T16:05:53.541Z,7.22
2023-04-11T16:08:22.876Z,5.88
2023-04-11T16:10:51.582Z,6.32
2023-04-11T16:13:20.473Z,7.40
2023-04-11T16:15:50.474Z,6.82
2023-04-11T16:18:19.055Z,4.85
2023-04-11T16:20:47.784Z,5.47
2023-04-11T16:23:16.411Z,6.10
2023-04-11T16:25:46.567Z,8.77
2023-04-11T16:28:15.460Z,7.63
2023-04-11T16:30:44.088Z,5.80
2023-04-11T16:33:14.060Z,5.07
2023-04-11T16:35:42.732Z,9.93
2023-04-11T16:38:11.371Z,7.03
2023-04-11T16:40:40.005Z,5.53
2023-04-11T16:43:08.585Z,10.32
2023-04-11T16:45:37.200Z,8.75
2023-04-11T16:48:07.082Z,12.10
2023-04-11T16:50:37.105Z,8.20
2023-04-11T16:53:06.571Z,9.68
2023-04-11T16:55:35.192Z,11.93
2023-04-11T16:58:03.872Z,11.35
2023-04-11T17:00:32.476Z,7.80
2023-04-11T17:03:01.124Z,10.77
2023-04-11T17:05:30.739Z,9.73
2023-04-11T17:08:00.784Z,10.40
2023-04-11T17:10:29.419Z,7.35
2023-04-11T17:12:59.855Z,7.70
2023-04-11T17:15:29.125Z,7.17
2023-04-11T17:18:01.773Z,9.50
2023-04-11T17:20:33.752Z,6.07
2023-04-11T17:23:07.313Z,10.43
2023-04-11T17:25:38.966Z,9.07
2023-04-11T17:28:07.546Z,10.47
2023-04-11T17:30:36.649Z,5.03
2023-04-11T17:33:05.354Z,10.43
2023-04-11T17:35:35.959Z,6.78
2023-04-11T17:38:38.410Z,7.38
2023-04-11T17:41:14.981Z,11.93
2023-04-11T17:43:45.834Z,10.43
2023-04-11T17:49:13.114Z,10.00
2023-04-11T17:51:48.749Z,7.18
2023-04-11T17:54:22.549Z,11.77
2023-04-11T17:56:52.636Z,8.25
2023-04-11T17:59:21.411Z,14.05
2023-04-11T18:01:50.015Z,6.40
2023-04-11T18:04:18.783Z,7.47
2023-04-11T18:06:47.588Z,14.33
2023-04-11T18:09:17.280Z,7.50
2023-04-11T18:11:48.250Z,7.65
2023-04-11T18:14:16.953Z,5.07
2023-04-11T18:16:47.852Z,9.43
2023-04-11T18:19:16.387Z,5.53
2023-04-11T18:21:44.988Z,5.45
2023-04-11T18:24:15.686Z,7.47
2023-04-11T18:26:44.288Z,8.48
2023-04-11T18:29:14.238Z,7.30
2023-04-11T18:31:42.858Z,7.97
2023-04-11T18:34:11.707Z,5.43
2023-04-11T18:36:42.243Z,9.18
2023-04-11T18:39:11.237Z,8.32
2023-04-11T18:41:40.148Z,7.40
2023-04-11T18:44:10.003Z,7.17
2023-04-11T18:46:41.986Z,8.05
2023-04-11T18:49:11.757Z,9.40
2023-04-11T18:51:41.734Z,13.05
2023-04-11T18:54:10.647Z,12.32
2023-04-11T18:56:40.442Z,9.47
2023-04-11T18:59:10.301Z,9.10
2023-04-11T19:01:42.089Z,10.30
2023-04-11T19:04:11.165Z,28.92
2023-04-11T19:06:39.860Z,20.75
2023-04-11T19:09:09.370Z,9.70
2023-04-11T19:11:38.436Z,9.07
2023-04-11T19:14:07.325Z,10.80
2023-04-11T19:16:36.467Z,6.70
2023-04-11T19:19:09.419Z,5.85
2023-04-11T19:21:39.350Z,10.57
2023-04-11T19:24:09.732Z,7.60
2023-04-11T19:26:56.734Z,8.57
2023-04-11T19:29:26.118Z,7.28
2023-04-11T19:31:54.982Z,9.98
2023-04-11T19:34:25.425Z,8.87
2023-04-11T19:36:54.005Z,8.20
2023-04-11T19:39:22.792Z,11.10
2023-04-11T19:41:52.653Z,11.20
2023-04-11T19:44:21.298Z,6.85
2023-04-11T19:46:50.208Z,9.97
2023-04-11T19:49:18.751Z,11.02
2023-04-11T19:51:48.730Z,11.50
2023-04-11T19:54:17.636Z,10.20
2023-04-11T19:56:49.159Z,13.90
2023-04-11T19:59:17.743Z,10.60
2023-04-11T20:01:46.469Z,11.30
2023-04-11T20:04:16.047Z,9.90
2023-04-11T20:06:45.163Z,14.52
2023-04-11T20:09:16.045Z,10.23
2023-04-11T20:11:47.209Z,10.70
2023-04-11T20:14:15.901Z,9.70
2023-04-11T20:16:44.518Z,9.95
2023-04-11T20:19:13.634Z,6.95
2023-04-11T20:21:42.283Z,6.97
2023-04-11T20:24:12.315Z,10.37
2023-04-11T20:26:42.234Z,8.65
2023-04-11T20:29:11.169Z,7.45
2023-04-11T20:31:39.723Z,8.43
2023-04-11T20:34:14.489Z,9.05
2023-04-11T20:36:43.323Z,9.60
2023-04-11T20:39:11.870Z,10.13
2023-04-11T20:41:41.911Z,8.90
2023-04-11T20:44:10.606Z,8.20
2023-04-11T20:46:39.884Z,6.10
2023-04-11T20:49:11.990Z,8.50
2023-04-11T20:51:41.149Z,7.47
2023-04-11T20:54:09.738Z,8.13
2023-04-11T20:56:38.406Z,8.15
2023-04-11T20:59:09.986Z,8.85
2023-04-11T21:01:38.666Z,10.53
2023-04-11T21:04:09.667Z,8.25
2023-04-11T21:06:38.834Z,6.93
2023-04-11T21:09:07.420Z,5.75
2023-04-11T21:11:37.873Z,7.43
2023-04-11T21:14:08.100Z,10.60
2023-04-11T21:16:36.822Z,8.60
2023-04-11T21:19:05.540Z,7.00
2023-04-11T21:21:34.628Z,6.30
2023-04-11T21:24:07.740Z,6.65
2023-04-11T21:26:36.310Z,5.00
2023-04-11T21:29:04.877Z,8.23
2023-04-11T21:31:34.895Z,6.80
2023-04-11T21:34:03.534Z,10.60
2023-04-11T21:36:32.242Z,8.80
2023-04-11T21:39:00.732Z,10.73
2023-04-11T21:41:30.617Z,12.70
2023-04-11T21:44:00.499Z,14.55
2023-04-11T21:46:29.397Z,17.58
2023-04-11T21:48:59.455Z,20.40
2023-04-11T21:51:28.962Z,18.87
2023-04-11T21:53:57.746Z,16.05
2023-04-11T21:56:26.403Z,24.25
2023-04-11T21:58:55.056Z,19.10
2023-04-11T22:01:24.162Z,16.13
2023-04-11T22:03:53.013Z,16.20
2023-04-11T22:06:26.450Z,17.15
2023-04-11T22:08:55.002Z,20.10
2023-04-11T22:11:24.122Z,14.23
2023-04-11T22:13:57.637Z,13.38
2023-04-11T22:16:31.709Z,8.57
2023-04-11T22:19:01.150Z,12.98
2023-04-11T22:21:34.355Z,9.25
2023-04-11T22:24:04.641Z,11.02
2023-04-11T22:26:35.117Z,9.55
2023-04-11T22:29:06.167Z,10.37
2023-04-11T22:31:38.493Z,11.05
2023-04-11T22:34:08.299Z,9.48
2023-04-11T22:36:38.368Z,8.85
2023-04-11T22:39:07.913Z,8.88
2023-04-11T22:41:38.495Z,9.00
2023-04-11T22:44:07.450Z,12.02
2023-04-11T22:46:39.049Z,9.90
2023-04-11T22:49:09.806Z,6.88
2023-04-11T22:51:41.032Z,6.53
2023-04-11T22:54:09.685Z,11.03
2023-04-11T22:56:38.356Z,7.18
2023-04-11T22:59:06.889Z,6.43
2023-04-11T23:01:35.838Z,6.28
2023-04-11T23:04:04.475Z,8.05
2023-04-11T23:06:33.073Z,8.83
2023-04-11T23:09:03.444Z,9.63
2023-04-11T23:11:32.099Z,8.73
2023-04-11T23:14:01.044Z,7.97
2023-04-11T23:16:29.807Z,7.13
2023-04-11T23:18:59.291Z,10.93
2023-04-11T23:21:28.986Z,6.13
2023-04-11T23:23:58.314Z,6.50
2023-04-11T23:26:28.705Z,8.00
2023-04-11T23:28:57.512Z,8.48
2023-04-11T23:31:26.382Z,5.80
2023-04-11T23:33:55.510Z,7.30
2023-04-11T23:36:24.554Z,6.28
2023-04-11T23:38:53.483Z,8.63
2023-04-11T23:41:22.138Z,5.88
2023-04-11T23:43:52.123Z,9.33
2023-04-11T23:46:20.864Z,7.47
2023-04-11T23:48:49.458Z,9.10
2023-04-11T23:51:22.438Z,7.10
2023-04-11T23:53:53.317Z,6.93
2023-04-11T23:56:24.164Z,12.97
2023-04-11T23:58:54.218Z,5.65
